Time;durP1;ratioP1;P1;durP2;ratioP2;P2;SDS_P1;SDS_P2;PMS_P1;PMS_P2;Temp;Humidity;BMP_temperature;BMP_pressure;BME280_temperature;BME280_humidity;BME280_pressure;Samples;Min_cycle;Max_cycle;Signal;HPM_P1;HPM_P2
2020/12/21 00:01:18;;;;;;;14.88;10.18;;;7.20;80.10;;;;;;5077430;28;19904;-71
2020/12/21 00:03:44;;;;;;;15.65;10.55;;;7.20;79.00;;;;;;5077215;28;20024;-71
2020/12/21 00:06:14;;;;;;;11.98;8.82;;;7.10;79.60;;;;;;5076118;28;20294;-71
2020/12/21 00:08:43;;;;;;;9.07;7.38;;;7.10;80.60;;;;;;5077363;28;20020;-71
2020/12/21 00:11:09;;;;;;;9.52;7.40;;;7.10;80.70;;;;;;5059392;28;20321;-71
2020/12/21 00:13:53;;;;;;;8.98;7.43;;;7.00;82.70;;;;;;5077010;28;20017;-71
2020/12/21 00:16:22;;;;;;;11.30;8.35;;;7.00;81.80;;;;;;5077282;28;20093;-71
2020/12/21 00:18:50;;;;;;;11.85;8.20;;;7.00;81.20;;;;;;5076904;28;20297;-71
2020/12/21 00:21:15;;;;;;;10.52;8.27;;;7.00;81.20;;;;;;5077231;28;20071;-71
2020/12/21 00:23:41;;;;;;;12.57;9.10;;;6.90;81.60;;;;;;5076962;28;20059;-71
2020/12/21 00:26:09;;;;;;;11.52;8.65;;;6.90;81.90;;;;;;5076731;28;20042;-71
2020/12/21 00:28:35;;;;;;;13.02;9.18;;;7.00;82.10;;;;;;5076811;28;20078;-71
2020/12/21 00:31:01;;;;;;;12.68;10.93;;;7.00;82.90;;;;;;5077107;28;20424;-71
2020/12/21 00:33:31;;;;;;;14.85;11.15;;;7.00;82.50;;;;;;5058982;28;20029;-71
2020/12/21 00:35:57;;;;;;;13.93;11.40;;;7.00;82.70;;;;;;5076733;28;20028;-71
2020/12/21 00:38:22;;;;;;;15.23;11.15;;;7.00;83.00;;;;;;5058968;28;20420;-71
2020/12/21 00:40:48;;;;;;;14.85;11.70;;;7.00;82.60;;;;;;5076701;28;20107;-71
2020/12/21 00:43:14;;;;;;;17.20;12.02;;;7.00;82.60;;;;;;5058920;28;20040;-71
2020/12/21 00:45:39;;;;;;;17.70;11.80;;;7.00;82.70;;;;;;5076537;28;20029;-71
2020/12/21 00:48:05;;;;;;;14.07;11.05;;;7.00;82.90;;;;;;5076617;28;20055;-71
2020/12/21 00:50:31;;;;;;;14.77;10.98;;;7.00;83.00;;;;;;5076654;28;20031;-71
2020/12/21 00:52:56;;;;;;;13.43;9.77;;;7.10;83.30;;;;;;5076668;28;20020;-71
2020/12/21 00:55:22;;;;;;;15.02;10.50;;;7.00;83.00;;;;;;5076538;28;20025;-71
2020/12/21 00:57:48;;;;;;;14.50;11.23;;;7.00;82.90;;;;;;5076772;28;20112;-72
2020/12/21 01:00:15;;;;;;;16.42;12.75;;;7.00;82.90;;;;;;5076755;28;20035;-72
2020/12/21 01:02:41;;;;;;;15.73;11.80;;;7.00;83.00;;;;;;5076406;28;20028;-71
2020/12/21 01:05:09;;;;;;;17.52;11.93;;;7.00;82.50;;;;;;5076391;28;20082;-72
2020/12/21 01:07:35;;;;;;;15.35;10.13;;;7.00;82.50;;;;;;5076346;28;20404;-71
2020/12/21 01:10:01;;;;;;;11.57;8.40;;;7.10;82.20;;;;;;5076398;28;20043;-72
2020/12/21 01:12:27;;;;;;;10.50;7.22;;;7.10;81.80;;;;;;5076661;28;20025;-72
2020/12/21 01:14:53;;;;;;;7.40;5.78;;;7.10;81.40;;;;;;5076560;28;20028;-72
2020/12/21 01:17:21;;;;;;;9.55;6.68;;;7.00;81.70;;;;;;5077395;28;20025;-71
2020/12/21 01:19:47;;;;;;;9.10;6.82;;;7.00;81.40;;;;;;5062485;28;20033;-71
2020/12/21 01:22:12;;;;;;;14.35;10.50;;;7.10;81.70;;;;;;5080481;28;20033;-71
2020/12/21 01:24:40;;;;;;;11.55;8.35;;;7.10;80.50;;;;;;5080609;28;20032;-71
2020/12/21 01:27:07;;;;;;;10.65;8.20;;;7.00;81.30;;;;;;5080287;28;20033;-71
2020/12/21 01:29:32;;;;;;;12.45;8.65;;;7.10;81.90;;;;;;5079847;28;20056;-71
2020/12/21 01:31:58;;;;;;;15.40;10.32;;;7.10;82.10;;;;;;5080064;28;20319;-71
2020/12/21 01:34:23;;;;;;;15.35;12.07;;;7.10;82.00;;;;;;5079928;28;20060;-71
2020/12/21 01:36:49;;;;;;;14.75;11.27;;;7.10;81.20;;;;;;5080222;28;20055;-71
2020/12/21 01:39:15;;;;;;;15.93;10.98;;;7.10;81.90;;;;;;5079899;28;20413;-71
2020/12/21 01:41:40;;;;;;;15.35;11.13;;;7.10;81.50;;;;;;5079908;28;20413;-72
2020/12/21 01:44:06;;;;;;;13.60;10.43;;;7.10;81.40;;;;;;5079782;28;20474;-71
2020/12/21 01:46:31;;;;;;;14.18;10.40;;;7.10;81.40;;;;;;5079727;28;20025;-71
2020/12/21 01:48:57;;;;;;;15.35;11.27;;;7.10;81.80;;;;;;5079669;28;20025;-71
2020/12/21 01:51:28;;;;;;;16.95;12.75;;;7.10;82.00;;;;;;5079975;28;20016;-71
2020/12/21 01:53:55;;;;;;;16.70;11.77;;;7.10;81.90;;;;;;5079771;28;20401;-71
2020/12/21 01:56:21;;;;;;;15.45;11.18;;;7.10;81.80;;;;;;5079570;28;20383;-71
2020/12/21 01:58:47;;;;;;;14.32;10.13;;;7.10;82.00;;;;;;5079550;28;20035;-71
2020/12/21 02:01:15;;;;;;;10.60;8.77;;;7.10;82.00;;;;;;5079688;28;20481;-71
2020/12/21 02:03:41;;;;;;;12.32;9.98;;;7.00;82.70;;;;;;5061738;28;20025;-71
2020/12/21 02:06:08;;;;;;;14.70;10.80;;;7.00;81.60;;;;;;5061515;28;20032;-71
2020/12/21 02:08:33;;;;;;;15.75;11.35;;;7.00;81.10;;;;;;5079463;28;20028;-71
2020/12/21 02:10:59;;;;;;;13.30;10.15;;;7.10;81.60;;;;;;5079346;28;20316;-71
2020/12/21 02:13:25;;;;;;;16.23;11.02;;;7.00;82.50;;;;;;5079526;28;20320;-71
2020/12/21 02:15:51;;;;;;;17.13;12.63;;;7.00;82.30;;;;;;5079481;28;20094;-72
2020/12/21 02:18:17;;;;;;;17.15;13.27;;;7.00;81.90;;;;;;5079162;28;20086;-71
2020/12/21 02:20:43;;;;;;;19.60;13.25;;;7.00;82.20;;;;;;5079162;28;20024;-71
2020/12/21 02:23:08;;;;;;;17.58;12.32;;;7.00;82.10;;;;;;5061256;28;20033;-71
2020/12/21 02:25:34;;;;;;;16.13;12.35;;;7.00;82.50;;;;;;5078933;28;20060;-71
2020/12/21 02:28:00;;;;;;;15.38;11.88;;;7.00;82.70;;;;;;5079180;28;20029;-71
2020/12/21 02:30:26;;;;;;;15.98;11.90;;;7.00;82.80;;;;;;5077951;28;20128;-71
2020/12/21 02:32:51;;;;;;;15.25;11.75;;;6.90;82.00;;;;;;5078968;28;20084;-71
2020/12/21 02:35:17;;;;;;;14.00;10.93;;;6.90;82.40;;;;;;5079109;28;20304;-71
2020/12/21 02:37:43;;;;;;;15.75;11.13;;;6.90;83.10;;;;;;5078823;28;20102;-71
2020/12/21 02:40:08;;;;;;;17.25;11.77;;;6.80;83.00;;;;;;5078960;28;20035;-71
2020/12/21 02:42:34;;;;;;;14.00;10.80;;;6.90;82.30;;;;;;5078808;28;20468;-71
2020/12/21 02:45:01;;;;;;;14.80;11.18;;;6.80;82.60;;;;;;5078658;28;20024;-71
2020/12/21 02:47:26;;;;;;;16.38;11.10;;;6.80;82.20;;;;;;5078604;28;20021;-71
2020/12/21 02:49:52;;;;;;;16.02;11.13;;;6.80;81.90;;;;;;5078568;28;20095;-71
2020/12/21 02:52:18;;;;;;;12.98;10.43;;;6.80;81.90;;;;;;5078823;28;20024;-71
2020/12/21 02:54:45;;;;;;;16.48;11.13;;;6.80;81.70;;;;;;5078959;28;20059;-72
2020/12/21 02:57:12;;;;;;;16.73;11.77;;;6.80;80.80;;;;;;5078463;28;20043;-71
2020/12/21 02:59:37;;;;;;;16.63;11.88;;;6.80;81.20;;;;;;5078660;28;20112;-71
2020/12/21 03:02:07;;;;;;;17.42;11.65;;;6.80;81.30;;;;;;5078576;28;20112;-71
2020/12/21 03:04:33;;;;;;;13.65;11.32;;;6.80;81.30;;;;;;5078453;28;20024;-71
2020/12/21 03:07:00;;;;;;;13.55;10.38;;;6.80;81.30;;;;;;5078404;28;20070;-71
2020/12/21 03:09:26;;;;;;;15.70;10.48;;;6.80;81.20;;;;;;5078229;28;20043;-71
2020/12/21 03:11:52;;;;;;;17.10;11.77;;;6.80;80.60;;;;;;5078179;28;20456;-72
2020/12/21 03:14:17;;;;;;;15.65;11.63;;;6.80;80.20;;;;;;5078046;28;20317;-71
2020/12/21 03:16:43;;;;;;;13.75;10.32;;;6.80;80.70;;;;;;5078362;28;20024;-71
2020/12/21 03:19:09;;;;;;;12.07;9.15;;;6.80;81.50;;;;;;5078313;28;20025;-71
2020/12/21 03:21:37;;;;;;;12.35;9.52;;;6.80;81.50;;;;;;5078047;28;20032;-71
2020/12/21 03:24:05;;;;;;;12.00;9.02;;;6.80;81.30;;;;;;5078114;28;20107;-71
2020/12/21 03:26:33;;;;;;;11.45;8.88;;;6.70;81.30;;;;;;5077797;28;20332;-71
2020/12/21 03:28:59;;;;;;;9.43;7.65;;;6.70;81.70;;;;;;5059935;28;20044;-72
2020/12/21 03:31:24;;;;;;;9.23;7.05;;;6.70;82.00;;;;;;5077773;28;20032;-71
2020/12/21 03:33:50;;;;;;;6.50;5.40;;;6.70;82.10;;;;;;5077719;28;20099;-71
2020/12/21 03:36:15;;;;;;;8.23;5.80;;;6.70;81.80;;;;;;5077944;28;20456;-71
2020/12/21 03:38:41;;;;;;;10.15;7.10;;;6.70;81.60;;;;;;5077627;28;20322;-71
2020/12/21 03:41:07;;;;;;;5.95;5.18;;;6.80;81.90;;;;;;5077550;28;20029;-71
2020/12/21 03:43:32;;;;;;;11.98;7.25;;;6.80;81.90;;;;;;5077507;28;20324;-71
2020/12/21 03:45:58;;;;;;;11.73;8.40;;;6.80;81.50;;;;;;5077624;28;20032;-71
2020/12/21 03:48:24;;;;;;;9.77;7.10;;;6.80;81.70;;;;;;5077484;28;20017;-71
2020/12/21 03:50:49;;;;;;;9.82;7.93;;;6.80;81.40;;;;;;5077415;28;20099;-71
2020/12/21 03:53:17;;;;;;;10.35;7.85;;;6.80;81.60;;;;;;5077589;28;20032;-71
2020/12/21 03:55:43;;;;;;;11.00;8.35;;;6.80;81.90;;;;;;5077295;28;20112;-71
2020/12/21 03:58:09;;;;;;;9.80;8.15;;;6.90;81.70;;;;;;5059565;28;20099;-71
2020/12/21 04:00:34;;;;;;;12.60;8.77;;;6.90;81.30;;;;;;5077229;28;20079;-71
2020/12/21 04:03:00;;;;;;;14.45;9.38;;;6.90;81.30;;;;;;5077252;28;20024;-71
2020/12/21 04:05:26;;;;;;;11.02;8.65;;;6.90;81.80;;;;;;5077111;28;20021;-71
2020/12/21 04:07:51;;;;;;;13.13;9.45;;;6.80;81.90;;;;;;5077240;28;20035;-71
2020/12/21 04:10:17;;;;;;;13.90;8.52;;;6.80;82.00;;;;;;5059343;28;20059;-71
2020/12/21 04:12:43;;;;;;;11.20;8.10;;;6.70;82.70;;;;;;5077035;28;20472;-71
2020/12/21 04:15:09;;;;;;;12.43;9.57;;;6.70;83.30;;;;;;5076967;28;20107;-71
2020/12/21 04:17:35;;;;;;;10.75;8.45;;;6.70;83.30;;;;;;5076945;28;20116;-71
2020/12/21 04:20:00;;;;;;;12.25;8.45;;;6.70;83.40;;;;;;5076892;28;20149;-71
2020/12/21 04:22:28;;;;;;;12.63;9.02;;;6.60;83.70;;;;;;5077210;28;20021;-71
2020/12/21 04:24:54;;;;;;;12.98;9.25;;;6.60;83.50;;;;;;5077337;28;20037;-71
2020/12/21 04:27:20;;;;;;;11.65;9.15;;;6.60;83.60;;;;;;5076742;28;20085;-71
2020/12/21 04:29:48;;;;;;;15.52;11.65;;;6.50;83.40;;;;;;5076691;28;20093;-71
2020/12/21 04:32:13;;;;;;;15.70;11.40;;;6.50;82.10;;;;;;5076809;28;20091;-71
2020/12/21 04:34:39;;;;;;;13.07;10.05;;;6.50;81.80;;;;;;5077103;28;20029;-71
2020/12/21 04:37:05;;;;;;;13.70;9.93;;;6.60;82.70;;;;;;5076982;28;20028;-71
2020/12/21 04:39:31;;;;;;;12.25;9.32;;;6.60;82.80;;;;;;5076744;28;20325;-71
2020/12/21 04:41:58;;;;;;;9.93;7.57;;;6.60;82.90;;;;;;5076735;28;20074;-71
2020/12/21 04:44:25;;;;;;;10.85;7.65;;;6.60;82.90;;;;;;5076597;28;20020;-71
2020/12/21 04:46:54;;;;;;;9.60;7.95;;;6.60;83.10;;;;;;5076530;28;20042;-71
2020/12/21 04:49:20;;;;;;;11.27;8.00;;;6.60;83.00;;;;;;5076620;28;20140;-71
2020/12/21 04:51:47;;;;;;;10.35;7.97;;;6.60;83.40;;;;;;5076056;28;20021;-71
2020/12/21 04:54:14;;;;;;;12.00;6.80;;;6.60;83.50;;;;;;5076817;28;20023;-71
2020/12/21 04:56:43;;;;;;;10.63;6.95;;;6.60;83.00;;;;;;5076554;28;20120;-71
2020/12/21 04:59:13;;;;;;;9.55;7.40;;;6.60;82.90;;;;;;5076538;28;20099;-71
2020/12/21 05:01:39;;;;;;;9.68;6.38;;;6.60;82.90;;;;;;5076757;28;20025;-71
2020/12/21 05:04:06;;;;;;;10.20;6.70;;;6.60;83.20;;;;;;5058618;28;20028;-71
2020/12/21 05:06:31;;;;;;;9.40;7.63;;;6.60;83.10;;;;;;5076658;28;20106;-71
2020/12/21 05:09:08;;;;;;;10.40;7.25;;;6.60;83.10;;;;;;5058639;28;20178;-71
2020/12/21 05:11:36;;;;;;;9.40;6.88;;;6.70;82.90;;;;;;5058705;28;20051;-71
2020/12/21 05:14:11;;;;;;;9.75;7.35;;;6.70;83.10;;;;;;5076382;28;20077;-71
2020/12/21 05:16:38;;;;;;;8.75;6.90;;;6.60;83.30;;;;;;5058592;28;20024;-71
2020/12/21 05:19:06;;;;;;;10.95;7.97;;;6.60;83.40;;;;;;5076390;28;20424;-71
2020/12/21 05:21:32;;;;;;;10.55;7.38;;;6.60;83.30;;;;;;5076610;28;20369;-71
2020/12/21 05:23:59;;;;;;;10.02;6.82;;;6.60;83.20;;;;;;5076242;28;20029;-71
2020/12/21 05:26:32;;;;;;;10.88;7.28;;;6.60;83.80;;;;;;5076232;28;20043;-71
2020/12/21 05:29:02;;;;;;;10.80;8.23;;;6.60;84.10;;;;;;5076168;28;20068;-71
2020/12/21 05:31:28;;;;;;;14.30;8.25;;;6.50;84.00;;;;;;5058476;28;20024;-71
2020/12/21 05:33:54;;;;;;;12.45;8.13;;;6.50;84.00;;;;;;5076221;28;20027;-71
2020/12/21 05:36:22;;;;;;;13.80;9.48;;;6.50;84.00;;;;;;5076165;28;20025;-71
2020/12/21 05:38:56;;;;;;;11.80;8.77;;;6.50;84.00;;;;;;5058327;28;20035;-71
2020/12/21 05:41:25;;;;;;;12.75;9.52;;;6.50;83.80;;;;;;5058391;28;20029;-71
2020/12/21 05:43:52;;;;;;;13.25;9.48;;;6.60;83.60;;;;;;5076027;28;20036;-71
2020/12/21 05:46:20;;;;;;;14.30;9.95;;;6.60;84.00;;;;;;5076261;28;20031;-71
2020/12/21 05:48:51;;;;;;;13.25;8.90;;;6.50;83.30;;;;;;5076323;28;20368;-71
2020/12/21 05:51:27;;;;;;;13.30;8.75;;;6.60;83.60;;;;;;5076105;28;20052;-71
2020/12/21 05:53:58;;;;;;;14.73;8.90;;;6.60;84.20;;;;;;5076216;28;20054;-71
2020/12/21 05:56:26;;;;;;;13.00;9.32;;;6.60;84.20;;;;;;5076481;28;20024;-71
2020/12/21 05:58:53;;;;;;;11.05;9.27;;;6.50;84.50;;;;;;5075858;28;20036;-71
2020/12/21 06:01:19;;;;;;;14.77;10.25;;;6.40;84.60;;;;;;5058181;28;20074;-71
2020/12/21 06:03:52;;;;;;;13.48;9.85;;;6.30;85.00;;;;;;5076110;28;20021;-71
2020/12/21 06:06:22;;;;;;;13.48;10.52;;;6.20;84.60;;;;;;5079645;28;20024;-71
2020/12/21 06:08:52;;;;;;;14.90;9.98;;;6.10;84.20;;;;;;5079473;28;20025;-71
2020/12/21 06:11:24;;;;;;;13.90;10.40;;;6.00;84.10;;;;;;5079417;28;20099;-71
2020/12/21 06:14:04;;;;;;;13.90;9.27;;;5.90;84.00;;;;;;5079331;28;20021;-71
2020/12/21 06:16:32;;;;;;;13.40;9.75;;;5.80;84.20;;;;;;5079714;28;20028;-71
2020/12/21 06:18:57;;;;;;;13.57;9.38;;;5.70;84.70;;;;;;5079390;28;20024;-71
2020/12/21 06:21:25;;;;;;;12.45;9.15;;;5.50;85.00;;;;;;5079280;28;20099;-71
2020/12/21 06:23:51;;;;;;;14.63;10.27;;;5.30;85.30;;;;;;5079375;28;20337;-71
2020/12/21 06:26:16;;;;;;;16.27;10.98;;;5.30;85.60;;;;;;5079004;28;20075;-71
2020/12/21 06:28:43;;;;;;;12.75;9.18;;;5.10;85.70;;;;;;5078843;28;20060;-71
2020/12/21 06:31:20;;;;;;;17.90;9.85;;;5.00;86.50;;;;;;5079075;28;20013;-71
2020/12/21 06:33:47;;;;;;;12.52;7.82;;;5.00;87.00;;;;;;5079174;28;20021;-71
2020/12/21 06:36:13;;;;;;;11.63;8.25;;;4.90;87.30;;;;;;5061093;28;20047;-71
2020/12/21 06:38:46;;;;;;;11.88;8.20;;;4.90;87.40;;;;;;5078838;28;20044;-71
2020/12/21 06:41:22;;;;;;;14.88;9.30;;;4.90;87.70;;;;;;5079005;28;20033;-71
2020/12/21 06:43:54;;;;;;;;;;;4.90;87.60;;;;;;5079246;28;20500;-71
2020/12/21 06:46:21;;;;;;;12.63;8.07;;;4.90;87.50;;;;;;5078593;28;19915;-71
2020/12/21 06:49:07;;;;;;;10.23;7.63;;;4.90;87.50;;;;;;5078635;28;20021;-71
2020/12/21 06:51:34;;;;;;;15.00;7.90;;;4.90;87.50;;;;;;5078960;28;20078;-71
2020/12/21 06:54:03;;;;;;;9.88;7.20;;;4.90;87.60;;;;;;5078875;28;20021;-71
2020/12/21 06:56:29;;;;;;;16.83;7.93;;;4.90;87.70;;;;;;5078695;28;20108;-71
2020/12/21 06:58:59;;;;;;;10.82;8.10;;;4.80;87.80;;;;;;5078748;28;20044;-71
2020/12/21 07:01:26;;;;;;;13.00;8.32;;;4.80;87.90;;;;;;5078993;28;20025;-71
2020/12/21 07:03:53;;;;;;;11.65;8.05;;;4.80;87.80;;;;;;5078295;28;20408;-71
2020/12/21 07:06:19;;;;;;;12.45;9.23;;;4.80;87.80;;;;;;5078292;28;20387;-71
2020/12/21 07:08:46;;;;;;;11.10;8.07;;;4.80;88.00;;;;;;5078524;28;20017;-71
2020/12/21 07:11:21;;;;;;;11.85;8.23;;;4.80;87.80;;;;;;5078421;28;20036;-71
2020/12/21 07:13:49;;;;;;;13.35;8.43;;;4.80;87.90;;;;;;5078636;28;20304;-71
2020/12/21 07:16:19;;;;;;;10.85;8.48;;;4.80;88.70;;;;;;5077667;28;20031;-71
2020/12/21 07:18:46;;;;;;;14.80;9.50;;;4.90;88.70;;;;;;5078171;28;20028;-71
2020/12/21 07:21:12;;;;;;;13.75;8.85;;;5.00;89.00;;;;;;5078103;28;20024;-71
2020/12/21 07:23:39;;;;;;;11.10;9.02;;;5.10;88.80;;;;;;5078235;28;20404;-71
2020/12/21 07:26:05;;;;;;;12.77;9.45;;;5.30;89.00;;;;;;5077807;28;20074;-71
2020/12/21 07:28:31;;;;;;;10.77;8.75;;;5.50;88.80;;;;;;5077646;28;20029;-72
2020/12/21 07:31:17;;;;;;;11.13;8.68;;;5.60;88.20;;;;;;5078161;28;20316;-71
2020/12/21 07:33:56;;;;;;;13.00;8.18;;;5.80;88.00;;;;;;5077916;28;20024;-71
2020/12/21 07:36:39;;;;;;;13.70;9.00;;;5.90;88.00;;;;;;5059995;28;20024;-71
2020/12/21 07:39:12;;;;;;;14.52;10.02;;;6.00;88.00;;;;;;5077797;28;20032;-71
2020/12/21 07:42:07;;;;;;;12.30;9.52;;;6.10;87.80;;;;;;5077648;28;20027;-71
2020/12/21 07:44:35;;;;;;;14.18;10.00;;;6.20;87.40;;;;;;5075338;28;20044;-71
2020/12/21 07:47:11;;;;;;;15.82;11.50;;;6.30;87.10;;;;;;5077339;28;20029;-71
2020/12/21 07:49:40;;;;;;;13.05;10.45;;;6.40;86.80;;;;;;5077462;28;20021;-71
2020/12/21 07:52:08;;;;;;;15.43;11.38;;;6.60;86.90;;;;;;5077717;28;20055;-71
2020/12/21 07:54:42;;;;;;;14.55;10.25;;;6.70;86.50;;;;;;5077366;28;20324;-71
2020/12/21 07:57:09;;;;;;;14.13;11.05;;;6.80;85.90;;;;;;5077330;28;20039;-71
2020/12/21 07:59:35;;;;;;;12.93;10.45;;;6.90;85.50;;;;;;5077512;28;20033;-71
2020/12/21 08:02:05;;;;;;;14.57;11.88;;;7.00;84.80;;;;;;5077627;28;20025;-71
2020/12/21 08:04:31;;;;;;;15.35;11.68;;;7.10;83.70;;;;;;5077403;28;20103;-71
2020/12/21 08:07:11;;;;;;;17.13;11.88;;;7.20;83.90;;;;;;5059558;28;20432;-71
2020/12/21 08:09:38;;;;;;;16.75;11.98;;;7.30;83.70;;;;;;5077370;28;20029;-71
2020/12/21 08:12:21;;;;;;;16.67;11.77;;;7.40;83.50;;;;;;5077238;28;20426;-71
2020/12/21 08:14:59;;;;;;;16.15;11.80;;;7.40;83.60;;;;;;5077102;28;20020;-71
2020/12/21 08:17:32;;;;;;;16.73;12.32;;;7.50;83.10;;;;;;5077173;28;20029;-71
2020/12/21 08:20:07;;;;;;;17.90;13.73;;;7.60;83.50;;;;;;5077020;28;20417;-71
2020/12/21 08:22:36;;;;;;;14.80;10.80;;;7.60;82.30;;;;;;5077215;28;20094;-71
2020/12/21 08:25:10;;;;;;;15.60;11.13;;;7.70;81.90;;;;;;5077552;28;20032;-71
2020/12/21 08:27:56;;;;;;;14.45;11.38;;;7.80;81.10;;;;;;5076269;28;20074;-72
2020/12/21 08:30:28;;;;;;;14.18;11.00;;;7.90;81.30;;;;;;5076012;28;20332;-72
2020/12/21 08:32:55;;;;;;;13.60;11.52;;;8.00;81.50;;;;;;5077118;28;20304;-72
2020/12/21 08:35:25;;;;;;;19.85;14.63;;;8.10;79.80;;;;;;5076769;28;20021;-71
2020/12/21 08:37:51;;;;;;;19.92;14.48;;;8.10;80.40;;;;;;5076752;28;20036;-71
2020/12/21 08:40:21;;;;;;;20.70;15.38;;;8.10;81.10;;;;;;5076728;28;20096;-71
2020/12/21 08:42:47;;;;;;;19.20;13.68;;;8.20;80.20;;;;;;5076988;28;20070;-71
2020/12/21 08:45:21;;;;;;;15.70;11.55;;;8.20;79.80;;;;;;5076627;28;20315;-71
2020/12/21 08:47:50;;;;;;;18.85;14.65;;;8.30;78.90;;;;;;5076866;28;20078;-71
2020/12/21 08:50:16;;;;;;;21.17;15.02;;;8.30;79.50;;;;;;5076495;28;20020;-71
2020/12/21 08:52:41;;;;;;;21.15;15.02;;;8.30;80.10;;;;;;5076303;28;20412;-71
2020/12/21 08:55:07;;;;;;;19.98;14.35;;;8.40;80.30;;;;;;5076593;28;20036;-71
2020/12/21 08:57:35;;;;;;;18.40;13.50;;;8.40;79.60;;;;;;5076562;28;20028;-72
2020/12/21 09:00:07;;;;;;;16.83;13.25;;;8.40;78.60;;;;;;5076451;28;20040;-72
2020/12/21 09:02:33;;;;;;;16.13;12.52;;;8.40;79.20;;;;;;5076458;28;20025;-72
2020/12/21 09:05:04;;;;;;;21.02;14.82;;;8.50;79.40;;;;;;5076573;28;20024;-72
2020/12/21 09:07:35;;;;;;;21.42;15.80;;;8.60;78.70;;;;;;5076625;28;20020;-71
2020/12/21 09:10:01;;;;;;;23.15;15.48;;;8.70;78.90;;;;;;5076428;28;20024;-71
2020/12/21 09:12:26;;;;;;;20.00;14.32;;;8.70;78.60;;;;;;5076399;28;20025;-71
2020/12/21 09:14:52;;;;;;;21.52;15.57;;;8.70;78.70;;;;;;5058560;28;20032;-71
2020/12/21 09:17:17;;;;;;;17.17;13.85;;;8.70;79.40;;;;;;5076404;28;20047;-72
2020/12/21 09:19:43;;;;;;;20.10;14.48;;;8.70;78.50;;;;;;5076331;28;20029;-71
2020/12/21 09:22:09;;;;;;;19.30;13.77;;;8.70;77.90;;;;;;5076641;28;20024;-72
2020/12/21 09:24:34;;;;;;;19.65;14.30;;;8.70;78.50;;;;;;5076154;28;20417;-71
2020/12/21 09:27:00;;;;;;;19.73;13.85;;;8.80;78.40;;;;;;5076218;28;20068;-72
2020/12/21 09:29:27;;;;;;;21.42;14.63;;;8.70;78.50;;;;;;5075988;28;20053;-72
2020/12/21 09:31:53;;;;;;;17.98;14.57;;;8.70;78.60;;;;;;5076507;28;20310;-71
2020/12/21 09:34:19;;;;;;;19.80;14.90;;;8.70;78.90;;;;;;5076105;28;20027;-71
2020/12/21 09:36:47;;;;;;;21.73;14.88;;;8.80;79.50;;;;;;5076432;28;20400;-72
2020/12/21 09:39:15;;;;;;;20.05;15.05;;;8.80;78.00;;;;;;5060790;28;20448;-72
2020/12/21 09:41:41;;;;;;;18.48;15.02;;;8.80;77.20;;;;;;5062266;28;20115;-72
2020/12/21 09:44:07;;;;;;;22.15;16.23;;;8.80;78.20;;;;;;5080057;28;20434;-72
2020/12/21 09:46:32;;;;;;;24.88;16.55;;;8.70;78.60;;;;;;5080016;28;20024;-71
2020/12/21 09:49:03;;;;;;;20.35;15.27;;;8.70;79.00;;;;;;5079785;28;20017;-72
2020/12/21 09:51:29;;;;;;;23.45;16.55;;;8.80;78.00;;;;;;5079801;28;20436;-72
2020/12/21 09:53:55;;;;;;;25.23;16.60;;;8.90;77.70;;;;;;5079962;28;20028;-72
2020/12/21 09:56:21;;;;;;;18.77;15.38;;;8.90;77.20;;;;;;5079790;28;20035;-71
2020/12/21 09:58:56;;;;;;;20.52;16.00;;;9.00;77.30;;;;;;5079703;28;20024;-72
2020/12/21 10:01:28;;;;;;;19.63;15.05;;;9.20;78.20;;;;;;5079944;28;20035;-72
2020/12/21 10:03:56;;;;;;;22.70;15.73;;;9.20;77.90;;;;;;5079581;28;20028;-72
2020/12/21 10:06:22;;;;;;;19.90;15.05;;;9.20;76.40;;;;;;5078993;28;20110;-72
2020/12/21 10:08:48;;;;;;;20.08;14.07;;;9.30;77.30;;;;;;5084171;28;20404;-72
2020/12/21 10:11:19;;;;;;;23.38;15.90;;;9.40;77.60;;;;;;5096127;28;20111;-72
2020/12/21 10:13:48;;;;;;;21.02;14.80;;;9.50;77.00;;;;;;5099546;28;20024;-72
2020/12/21 10:16:14;;;;;;;20.17;14.70;;;9.60;76.10;;;;;;5099532;28;20032;-72
2020/12/21 10:18:40;;;;;;;22.10;15.00;;;9.60;76.50;;;;;;5099517;28;20081;-72
2020/12/21 10:21:06;;;;;;;19.35;15.02;;;9.60;74.80;;;;;;5099626;28;20031;-72
2020/12/21 10:23:32;;;;;;;18.98;15.07;;;9.70;76.40;;;;;;5099540;28;20024;-72
2020/12/21 10:26:04;;;;;;;17.67;14.13;;;9.60;76.40;;;;;;5099219;28;20028;-72
2020/12/21 10:28:31;;;;;;;27.40;16.48;;;9.60;75.90;;;;;;5099258;28;20024;-72
2020/12/21 10:30:57;;;;;;;19.42;14.98;;;9.70;74.90;;;;;;5099636;28;20091;-72
2020/12/21 10:33:24;;;;;;;19.55;14.07;;;9.60;75.60;;;;;;5080479;28;20074;-72
2020/12/21 10:35:49;;;;;;;18.98;14.75;;;9.60;75.60;;;;;;5099195;28;20020;-72
2020/12/21 10:38:15;;;;;;;18.55;13.45;;;9.70;75.70;;;;;;5099437;28;20020;-72
2020/12/21 10:40:44;;;;;;;18.30;14.55;;;9.80;75.40;;;;;;5099024;28;20078;-72
2020/12/21 10:43:09;;;;;;;19.23;13.98;;;9.90;74.60;;;;;;5099418;28;20020;-72
2020/12/21 10:45:35;;;;;;;21.17;14.93;;;9.80;74.70;;;;;;5098990;28;20049;-72
2020/12/21 10:48:01;;;;;;;17.05;14.30;;;9.90;74.10;;;;;;5098918;28;20024;-72
2020/12/21 10:50:26;;;;;;;20.63;14.95;;;9.70;76.30;;;;;;5080100;28;20024;-72
2020/12/21 10:52:52;;;;;;;19.70;14.65;;;9.60;74.80;;;;;;5099014;28;20102;-72
2020/12/21 10:55:17;;;;;;;21.13;15.27;;;9.60;74.70;;;;;;5098799;28;20040;-72
2020/12/21 10:57:43;;;;;;;17.05;12.95;;;9.50;76.20;;;;;;5098794;28;20384;-72
2020/12/21 11:00:09;;;;;;;18.08;13.13;;;9.60;75.70;;;;;;5098739;28;20030;-72
2020/12/21 11:02:34;;;;;;;17.92;13.73;;;9.60;76.70;;;;;;5098813;28;20028;-72
2020/12/21 11:05:00;;;;;;;18.02;13.18;;;9.60;75.90;;;;;;5098534;28;20028;-72
2020/12/21 11:07:28;;;;;;;24.98;14.45;;;9.50;75.30;;;;;;5098492;28;20032;-72
2020/12/21 11:09:53;;;;;;;17.00;13.07;;;9.50;75.60;;;;;;5098542;28;20024;-72
2020/12/21 11:12:22;;;;;;;17.40;12.55;;;9.40;76.60;;;;;;5098495;28;20289;-72
2020/12/21 11:14:48;;;;;;;17.33;12.45;;;9.40;76.50;;;;;;5098318;28;20031;-72
2020/12/21 11:17:14;;;;;;;14.63;12.05;;;9.40;74.90;;;;;;5098549;28;20031;-72
2020/12/21 11:19:40;;;;;;;15.80;12.20;;;9.40;76.80;;;;;;5098595;28;20027;-72
2020/12/21 11:22:05;;;;;;;14.23;11.43;;;9.30;76.60;;;;;;5098564;28;20032;-72
2020/12/21 11:24:31;;;;;;;14.90;11.63;;;9.40;75.80;;;;;;5098705;28;20028;-72
2020/12/21 11:26:58;;;;;;;16.17;12.73;;;9.40;75.10;;;;;;5098337;28;20093;-72
2020/12/21 11:29:26;;;;;;;13.73;11.18;;;9.40;74.60;;;;;;5098087;28;20048;-72
2020/12/21 11:31:51;;;;;;;17.55;12.13;;;9.30;75.50;;;;;;5098098;28;20035;-72
2020/12/21 11:34:17;;;;;;;19.50;11.18;;;9.40;76.90;;;;;;5098015;28;20477;-72
2020/12/21 11:36:44;;;;;;;15.85;11.18;;;9.40;74.80;;;;;;5098001;28;20369;-71
2020/12/21 11:39:12;;;;;;;17.55;11.40;;;9.50;75.80;;;;;;5097895;28;20052;-72
2020/12/21 11:41:41;;;;;;;17.45;11.50;;;9.50;74.80;;;;;;5098117;28;20024;-72
2020/12/21 11:44:06;;;;;;;15.00;11.48;;;9.50;74.10;;;;;;5097784;28;20072;-72
2020/12/21 11:46:41;;;;;;;17.63;11.80;;;9.50;75.90;;;;;;5097773;28;20111;-72
2020/12/21 11:49:09;;;;;;;13.90;11.57;;;9.50;74.50;;;;;;5097942;28;20099;-72
2020/12/21 11:51:37;;;;;;;17.08;12.95;;;9.50;73.50;;;;;;5097824;28;20035;-72
2020/12/21 11:54:02;;;;;;;15.50;11.30;;;9.30;74.40;;;;;;5098121;28;20020;-72
2020/12/21 11:56:30;;;;;;;16.35;11.32;;;9.20;75.60;;;;;;5097684;28;20055;-72
2020/12/21 11:58:56;;;;;;;15.05;11.60;;;9.20;74.90;;;;;;5097651;28;20051;-72
2020/12/21 12:01:24;;;;;;;13.32;11.23;;;9.20;76.00;;;;;;5097568;28;20028;-72
2020/12/21 12:03:53;;;;;;;16.70;10.85;;;9.20;75.00;;;;;;5097471;28;20062;-72
2020/12/21 12:06:30;;;;;;;14.88;10.82;;;9.20;74.90;;;;;;5097683;28;20312;-72
2020/12/21 12:08:57;;;;;;;14.25;10.95;;;9.20;75.70;;;;;;5097653;28;20074;-71
2020/12/21 12:11:23;;;;;;;15.20;12.30;;;9.10;75.70;;;;;;5079408;28;20020;-71
2020/12/21 12:13:50;;;;;;;16.38;11.55;;;9.10;75.50;;;;;;5097231;28;20016;-72
2020/12/21 12:16:20;;;;;;;15.18;12.05;;;9.10;76.70;;;;;;5079327;28;20412;-72
2020/12/21 12:18:46;;;;;;;14.80;9.80;;;9.10;75.70;;;;;;5097291;28;20035;-72
2020/12/21 12:21:12;;;;;;;15.00;10.10;;;9.20;75.70;;;;;;5097366;28;20032;-72
2020/12/21 12:23:37;;;;;;;13.25;10.80;;;9.20;74.80;;;;;;5097469;28;20077;-72
2020/12/21 12:26:05;;;;;;;12.02;9.48;;;9.20;75.00;;;;;;5079039;28;20072;-72
2020/12/21 12:28:31;;;;;;;10.27;7.82;;;9.20;73.80;;;;;;5096961;28;20104;-72
2020/12/21 12:30:57;;;;;;;10.77;8.38;;;9.30;74.20;;;;;;5079234;28;20059;-72
2020/12/21 12:33:22;;;;;;;9.57;7.95;;;9.30;74.20;;;;;;5097059;28;20048;-72
2020/12/21 12:35:48;;;;;;;11.05;8.98;;;9.20;74.10;;;;;;5096982;28;20406;-72
2020/12/21 12:38:14;;;;;;;12.20;7.93;;;9.10;72.60;;;;;;5079065;28;20420;-72
2020/12/21 12:40:39;;;;;;;9.20;7.50;;;9.10;72.90;;;;;;5096880;28;20032;-72
2020/12/21 12:43:05;;;;;;;10.18;8.13;;;9.10;73.60;;;;;;5097323;28;20027;-72
2020/12/21 12:45:33;;;;;;;11.60;8.60;;;9.00;72.50;;;;;;5078938;28;20085;-72